Time;durP1;ratioP1;P1;durP2;ratioP2;P2;SDS_P1;SDS_P2;PMS_P1;PMS_P2;Temp;Humidity;BMP_temperature;BMP_pressure;BME280_temperature;BME280_humidity;BME280_pressure;Samples;Min_cycle;Max_cycle;Signal;HPM_P1;HPM_P2
2023/11/20 00:01:21;;;;;;;25.60;12.52;;;;;;;;;;4999825;28;20119;-61
2023/11/20 00:04:09;;;;;;;23.95;12.32;;;;;;;;;;4985783;28;20506;-61
2023/11/20 00:07:05;;;;;;;25.30;12.52;;;;;;;;;;5000779;28;20998;-61
2023/11/20 00:09:50;;;;;;;26.02;10.63;;;;;;;;;;4997010;28;20058;-61
2023/11/20 00:12:44;;;;;;;25.55;11.38;;;;;;;;;;4997531;28;20570;-61
2023/11/20 00:15:31;;;;;;;19.83;9.73;;;;;;;;;;5000011;28;20459;-61
2023/11/20 00:18:05;;;;;;;26.98;12.65;;;;;;;;;;4998261;28;20057;-61
2023/11/20 00:20:32;;;;;;;17.65;9.45;;;;;;;;;;4996464;28;20060;-61
2023/11/20 00:23:00;;;;;;;25.58;12.32;;;;;;;;;;4997169;28;20191;-61
2023/11/20 00:25:34;;;;;;;21.88;11.65;;;;;;;;;;5000808;28;20060;-61
2023/11/20 00:28:02;;;;;;;19.25;10.50;;;;;;;;;;4999412;28;21420;-61
2023/11/20 00:30:29;;;;;;;23.15;10.95;;;;;;;;;;4997637;28;20100;-54
2023/11/20 00:33:03;;;;;;;25.63;11.63;;;;;;;;;;4996502;28;20064;-53
2023/11/20 00:35:30;;;;;;;27.00;12.05;;;;;;;;;;4995579;28;20101;-52
2023/11/20 00:38:04;;;;;;;26.05;12.30;;;;;;;;;;4997832;28;20058;-53
2023/11/20 00:40:32;;;;;;;19.67;10.35;;;;;;;;;;4998848;28;20050;-50
2023/11/20 00:43:00;;;;;;;22.63;9.73;;;;;;;;;;4998962;28;20046;-53
2023/11/20 00:45:40;;;;;;;21.13;10.65;;;;;;;;;;4996955;28;20077;-55
2023/11/20 00:48:14;;;;;;;25.27;11.65;;;;;;;;;;4995456;28;20069;-52
2023/11/20 00:50:48;;;;;;;19.85;9.93;;;;;;;;;;5010096;28;20789;-55
2023/11/20 00:53:15;;;;;;;;;;;;;;;;;;4995264;28;20053;-56
2023/11/20 00:55:50;;;;;;;25.55;12.05;;;;;;;;;;4995826;28;19980;-56
2023/11/20 00:58:17;;;;;;;19.98;10.52;;;;;;;;;;4996874;28;20094;-57
2023/11/20 01:00:44;;;;;;;23.50;12.30;;;;;;;;;;4991729;28;20058;-57
2023/11/20 01:03:18;;;;;;;22.88;12.13;;;;;;;;;;4991394;28;20058;-57
2023/11/20 01:05:45;;;;;;;;;;;;;;;;;;4989857;28;20065;-54
2023/11/20 01:08:19;;;;;;;24.80;12.30;;;;;;;;;;4995395;28;19925;-56
2023/11/20 01:10:46;;;;;;;22.83;11.77;;;;;;;;;;4996481;28;20054;-56
2023/11/20 01:13:13;;;;;;;24.73;13.02;;;;;;;;;;4994699;28;20054;-53
2023/11/20 01:15:47;;;;;;;25.13;12.95;;;;;;;;;;4994340;28;20062;-55
2023/11/20 01:18:14;;;;;;;26.45;12.75;;;;;;;;;;4998773;28;20101;-57
2023/11/20 01:20:48;;;;;;;26.73;13.18;;;;;;;;;;4996444;28;20054;-56
2023/11/20 01:23:16;;;;;;;26.60;14.38;;;;;;;;;;4996832;28;20058;-61
2023/11/20 01:25:43;;;;;;;26.48;13.40;;;;;;;;;;5000020;28;20053;-61
2023/11/20 01:28:17;;;;;;;26.17;12.35;;;;;;;;;;5013973;28;20046;-61
2023/11/20 01:30:44;;;;;;;25.30;12.55;;;;;;;;;;4995648;28;20054;-61
2023/11/20 01:33:19;;;;;;;23.45;12.60;;;;;;;;;;4998001;28;20496;-61
2023/11/20 01:35:47;;;;;;;26.67;12.57;;;;;;;;;;4994113;28;20567;-62
2023/11/20 01:38:16;;;;;;;24.90;12.52;;;;;;;;;;4988971;28;20497;-61
2023/11/20 01:40:53;;;;;;;21.50;10.95;;;;;;;;;;5003637;28;20144;-61
2023/11/20 01:43:20;;;;;;;24.13;11.75;;;;;;;;;;5002995;28;20131;-60
2023/11/20 01:46:06;;;;;;;25.70;13.65;;;;;;;;;;4998264;28;20097;-61
2023/11/20 01:48:34;;;;;;;25.88;12.57;;;;;;;;;;4999814;28;20156;-61
2023/11/20 01:51:08;;;;;;;25.45;12.55;;;;;;;;;;5001738;28;20492;-61
2023/11/20 01:53:43;;;;;;;26.05;12.27;;;;;;;;;;4997781;28;20113;-61
2023/11/20 01:56:17;;;;;;;23.13;11.95;;;;;;;;;;5001007;28;20046;-61
2023/11/20 01:58:50;;;;;;;22.83;12.43;;;;;;;;;;5004129;28;20728;-62
2023/11/20 02:01:25;;;;;;;22.90;12.25;;;;;;;;;;5003064;28;20143;-60
2023/11/20 02:03:54;;;;;;;22.17;12.32;;;;;;;;;;4999913;28;20156;-61
2023/11/20 02:06:23;;;;;;;24.58;13.10;;;;;;;;;;5000744;28;20104;-61
2023/11/20 02:08:57;;;;;;;24.35;12.23;;;;;;;;;;5000257;28;20081;-61
2023/11/20 02:11:28;;;;;;;22.38;12.75;;;;;;;;;;4999548;28;20097;-60
2023/11/20 02:14:02;;;;;;;18.13;10.13;;;;;;;;;;4998048;28;20050;-60
2023/11/20 02:16:29;;;;;;;21.92;11.75;;;;;;;;;;4998384;28;20049;-59
2023/11/20 02:18:56;;;;;;;20.13;11.82;;;;;;;;;;4991454;28;20053;-60
2023/11/20 02:21:30;;;;;;;21.92;11.30;;;;;;;;;;4996766;28;20058;-60
2023/11/20 02:23:57;;;;;;;22.80;10.35;;;;;;;;;;4997409;28;20149;-60
2023/11/20 02:26:27;;;;;;;18.23;10.88;;;;;;;;;;5001752;28;20105;-60
2023/11/20 02:29:19;;;;;;;20.35;10.88;;;;;;;;;;4994993;28;20174;-60
2023/11/20 02:31:53;;;;;;;18.90;10.75;;;;;;;;;;5001306;28;20068;-60
2023/11/20 02:34:20;;;;;;;24.92;10.48;;;;;;;;;;5002580;28;20089;-60
2023/11/20 02:36:48;;;;;;;20.85;10.25;;;;;;;;;;5000238;28;20069;-60
2023/11/20 02:39:22;;;;;;;22.75;11.32;;;;;;;;;;4998319;28;20596;-60
2023/11/20 02:41:50;;;;;;;20.70;11.25;;;;;;;;;;4999220;28;20057;-63
2023/11/20 02:44:24;;;;;;;19.02;10.88;;;;;;;;;;4996661;28;20069;-61
2023/11/20 02:46:51;;;;;;;20.95;10.73;;;;;;;;;;5012181;28;20444;-52
2023/11/20 02:49:32;;;;;;;20.42;11.18;;;;;;;;;;5001164;28;20054;-51
2023/11/20 02:51:59;;;;;;;18.52;10.05;;;;;;;;;;4998164;28;20050;-51
2023/11/20 02:54:33;;;;;;;20.67;10.30;;;;;;;;;;4998525;28;20062;-53
2023/11/20 02:57:00;;;;;;;18.27;10.63;;;;;;;;;;4995715;28;20065;-51
2023/11/20 02:59:28;;;;;;;17.83;9.35;;;;;;;;;;4996755;28;20062;-49
2023/11/20 03:02:02;;;;;;;15.18;8.50;;;;;;;;;;4999759;28;20054;-50
2023/11/20 03:04:29;;;;;;;17.33;10.13;;;;;;;;;;5003199;28;20093;-52
2023/11/20 03:06:56;;;;;;;14.40;8.32;;;;;;;;;;4991802;28;20054;-52
2023/11/20 03:09:30;;;;;;;17.17;9.10;;;;;;;;;;4998250;28;20149;-48
2023/11/20 03:11:57;;;;;;;;;;;;;;;;;;5011092;28;20254;-51
2023/11/20 03:14:31;;;;;;;19.73;8.88;;;;;;;;;;4997634;28;20040;-48
2023/11/20 03:16:58;;;;;;;15.82;8.38;;;;;;;;;;4997678;28;20169;-50
2023/11/20 03:19:27;;;;;;;16.13;9.23;;;;;;;;;;4998565;28;20057;-52
2023/11/20 03:22:01;;;;;;;15.45;9.07;;;;;;;;;;4998318;28;20505;-51
2023/11/20 03:24:28;;;;;;;15.60;9.00;;;;;;;;;;4996660;28;20145;-51
2023/11/20 03:27:02;;;;;;;13.50;7.68;;;;;;;;;;4994677;28;20424;-60
2023/11/20 03:29:30;;;;;;;13.02;7.13;;;;;;;;;;4999560;28;20062;-60
2023/11/20 03:31:57;;;;;;;18.27;8.75;;;;;;;;;;5000061;28;20054;-60
2023/11/20 03:34:31;;;;;;;14.65;8.60;;;;;;;;;;4998781;28;20049;-61
2023/11/20 03:36:58;;;;;;;13.30;6.90;;;;;;;;;;4996734;28;21774;-61
2023/11/20 03:39:32;;;;;;;11.63;7.53;;;;;;;;;;4995993;28;20061;-60
2023/11/20 03:41:59;;;;;;;16.05;7.93;;;;;;;;;;4995638;28;20145;-61
2023/11/20 03:44:26;;;;;;;13.63;8.80;;;;;;;;;;4997518;28;20066;-61
2023/11/20 03:47:07;;;;;;;14.30;8.40;;;;;;;;;;5002098;28;20057;-60
2023/11/20 03:49:40;;;;;;;15.25;8.30;;;;;;;;;;4999477;28;20475;-61
2023/11/20 03:52:14;;;;;;;19.67;8.90;;;;;;;;;;4998665;28;20547;-60
2023/11/20 03:54:42;;;;;;;13.77;7.60;;;;;;;;;;4995310;28;20104;-63
2023/11/20 03:57:10;;;;;;;16.45;6.95;;;;;;;;;;4997615;28;20141;-63
2023/11/20 03:59:44;;;;;;;14.50;7.28;;;;;;;;;;4998107;28;20419;-62
2023/11/20 04:02:11;;;;;;;9.75;4.95;;;;;;;;;;5001339;28;20060;-62
2023/11/20 04:04:45;;;;;;;11.52;6.15;;;;;;;;;;4995920;28;20065;-63
2023/11/20 04:07:19;;;;;;;14.00;8.23;;;;;;;;;;4995018;28;20066;-63
2023/11/20 04:09:53;;;;;;;16.27;8.18;;;;;;;;;;4997118;28;20488;-62
2023/11/20 04:12:28;;;;;;;12.93;7.85;;;;;;;;;;5000078;28;20493;-62
2023/11/20 04:15:02;;;;;;;13.15;7.78;;;;;;;;;;4996415;28;20165;-62
2023/11/20 04:17:36;;;;;;;28.52;9.30;;;;;;;;;;4999638;28;20049;-63
2023/11/20 04:20:05;;;;;;;14.93;8.27;;;;;;;;;;5001705;28;20112;-62
2023/11/20 04:22:39;;;;;;;12.60;6.85;;;;;;;;;;4995905;28;20153;-62
2023/11/20 04:25:07;;;;;;;16.05;8.25;;;;;;;;;;4997809;28;20108;-62
2023/11/20 04:27:35;;;;;;;;;;;;;;;;;;4997732;28;20128;-63
2023/11/20 04:30:09;;;;;;;11.40;6.63;;;;;;;;;;4995016;28;19925;-63
2023/11/20 04:32:37;;;;;;;13.68;7.28;;;;;;;;;;4998627;28;20046;-63
2023/11/20 04:35:11;;;;;;;13.80;7.57;;;;;;;;;;4996267;28;20064;-63
2023/11/20 04:37:38;;;;;;;11.68;7.18;;;;;;;;;;4999030;28;20053;-63
2023/11/20 04:40:12;;;;;;;16.17;9.32;;;;;;;;;;4994312;28;20147;-63
2023/11/20 04:42:39;;;;;;;13.82;7.43;;;;;;;;;;4989018;28;20066;-63
2023/11/20 04:45:08;;;;;;;14.15;7.82;;;;;;;;;;4988979;28;20077;-62
2023/11/20 04:47:49;;;;;;;16.60;7.90;;;;;;;;;;4997369;28;20077;-62
2023/11/20 04:50:16;;;;;;;16.75;7.93;;;;;;;;;;4997000;28;20050;-63
2023/11/20 04:52:50;;;;;;;16.05;7.72;;;;;;;;;;4997282;28;20065;-63
2023/11/20 04:55:18;;;;;;;17.10;8.20;;;;;;;;;;4999248;28;20050;-63
2023/11/20 04:57:52;;;;;;;13.85;7.88;;;;;;;;;;4994199;28;20542;-62
2023/11/20 05:00:19;;;;;;;;;;;;;;;;;;4996292;28;20069;-62
2023/11/20 05:02:47;;;;;;;15.40;6.90;;;;;;;;;;4993176;28;19925;-63
2023/11/20 05:05:21;;;;;;;8.77;5.32;;;;;;;;;;4981162;28;20053;-64
2023/11/20 05:07:50;;;;;;;16.23;8.52;;;;;;;;;;5004115;28;20062;-62
2023/11/20 05:10:24;;;;;;;14.23;8.00;;;;;;;;;;5005269;28;20061;-62
2023/11/20 05:12:58;;;;;;;14.55;7.68;;;;;;;;;;5003727;28;20058;-62
2023/11/20 05:15:25;;;;;;;11.23;7.00;;;;;;;;;;5005634;28;20057;-62
2023/11/20 05:17:52;;;;;;;16.88;7.40;;;;;;;;;;5003719;28;21191;-62
2023/11/20 05:20:26;;;;;;;13.00;7.95;;;;;;;;;;5003655;28;20065;-61
2023/11/20 05:22:53;;;;;;;11.00;7.38;;;;;;;;;;5002997;28;20839;-60
2023/11/20 05:25:27;;;;;;;11.20;6.68;;;;;;;;;;5001083;28;20058;-60
2023/11/20 05:27:54;;;;;;;16.52;7.82;;;;;;;;;;4997766;28;20085;-60
2023/11/20 05:30:22;;;;;;;14.05;7.60;;;;;;;;;;5000720;28;20050;-60
2023/11/20 05:32:59;;;;;;;12.57;7.00;;;;;;;;;;4998731;28;20603;-60
2023/11/20 05:35:27;;;;;;;13.38;6.68;;;;;;;;;;5000371;28;20147;-60
2023/11/20 05:38:01;;;;;;;8.77;4.43;;;;;;;;;;5000792;28;20077;-61
2023/11/20 05:40:28;;;;;;;13.85;7.93;;;;;;;;;;4997274;28;20548;-60
2023/11/20 05:42:56;;;;;;;11.32;6.35;;;;;;;;;;4998636;28;20127;-61
2023/11/20 05:45:30;;;;;;;14.35;6.97;;;;;;;;;;4999787;28;20493;-60
2023/11/20 05:48:04;;;;;;;13.20;7.05;;;;;;;;;;4990514;28;21026;-61
2023/11/20 05:50:38;;;;;;;11.88;6.68;;;;;;;;;;5000135;28;20061;-51
2023/11/20 05:53:06;;;;;;;13.32;7.05;;;;;;;;;;5001989;28;20107;-51
2023/11/20 05:55:33;;;;;;;;;;;;;;;;;;5001663;28;20061;-49
2023/11/20 05:58:07;;;;;;;12.23;7.22;;;;;;;;;;5001283;28;19964;-54
2023/11/20 06:00:36;;;;;;;15.02;7.22;;;;;;;;;;5001629;28;20108;-53
2023/11/20 06:03:10;;;;;;;14.82;7.28;;;;;;;;;;4992043;28;20508;-51
2023/11/20 06:05:38;;;;;;;11.75;6.25;;;;;;;;;;4995364;28;20056;-52
2023/11/20 06:08:05;;;;;;;13.15;7.00;;;;;;;;;;5003945;28;20062;-54
2023/11/20 06:10:39;;;;;;;12.50;7.20;;;;;;;;;;5001726;28;20057;-52
2023/11/20 06:13:07;;;;;;;13.95;7.38;;;;;;;;;;4995883;28;20060;-51
2023/11/20 06:15:41;;;;;;;11.38;7.05;;;;;;;;;;5001820;28;20058;-51
2023/11/20 06:18:08;;;;;;;15.30;7.97;;;;;;;;;;4995957;28;20069;-50
2023/11/20 06:20:35;;;;;;;11.68;6.40;;;;;;;;;;5003525;28;20061;-53
2023/11/20 06:23:09;;;;;;;12.77;6.93;;;;;;;;;;5002079;28;20420;-51
2023/11/20 06:25:36;;;;;;;14.88;7.93;;;;;;;;;;4996803;28;20143;-49
2023/11/20 06:28:10;;;;;;;14.98;7.32;;;;;;;;;;5001648;28;20061;-51
2023/11/20 06:30:37;;;;;;;11.75;6.57;;;;;;;;;;5001874;28;20508;-53
2023/11/20 06:33:05;;;;;;;11.77;6.82;;;;;;;;;;4986508;28;20068;-52
2023/11/20 06:35:39;;;;;;;10.95;5.90;;;;;;;;;;5000112;28;20429;-53
2023/11/20 06:38:06;;;;;;;9.60;6.72;;;;;;;;;;5004557;28;20073;-52
2023/11/20 06:40:40;;;;;;;12.82;6.93;;;;;;;;;;5001872;28;20061;-53
2023/11/20 06:43:08;;;;;;;;;;;;;;;;;;5002950;28;20077;-50
2023/11/20 06:45:35;;;;;;;26.80;7.73;;;;;;;;;;4999877;28;20458;-51
2023/11/20 06:48:16;;;;;;;17.67;7.03;;;;;;;;;;4998633;28;20088;-50
2023/11/20 06:50:44;;;;;;;15.52;7.70;;;;;;;;;;5004777;28;20058;-52
2023/11/20 06:53:18;;;;;;;13.73;7.88;;;;;;;;;;5001099;28;20492;-52
2023/11/20 06:55:46;;;;;;;15.07;8.10;;;;;;;;;;4996886;28;20058;-53
2023/11/20 06:58:13;;;;;;;16.02;7.95;;;;;;;;;;5000828;28;20261;-52
2023/11/20 07:00:48;;;;;;;16.95;8.40;;;;;;;;;;5001338;28;20673;-51
2023/11/20 07:03:19;;;;;;;16.05;7.78;;;;;;;;;;4997711;28;20061;-49
2023/11/20 07:05:53;;;;;;;15.23;8.10;;;;;;;;;;5002329;28;20061;-51
2023/11/20 07:08:22;;;;;;;;;;;;;;;;;;5000950;28;20062;-50
2023/11/20 07:10:57;;;;;;;13.40;7.50;;;;;;;;;;5000013;28;19968;-51
2023/11/20 07:13:24;;;;;;;13.68;7.70;;;;;;;;;;5000265;28;20508;-52
2023/11/20 07:15:53;;;;;;;16.08;8.20;;;;;;;;;;5001290;28;20053;-50
2023/11/20 07:18:27;;;;;;;14.35;8.45;;;;;;;;;;4997869;28;20136;-49
2023/11/20 07:20:55;;;;;;;17.85;8.00;;;;;;;;;;5001175;28;20057;-54
2023/11/20 07:23:22;;;;;;;14.07;8.40;;;;;;;;;;5001431;28;20069;-52
2023/11/20 07:25:56;;;;;;;13.88;7.97;;;;;;;;;;5001258;28;20097;-52
2023/11/20 07:28:23;;;;;;;13.98;7.97;;;;;;;;;;4999657;28;21117;-54
2023/11/20 07:30:57;;;;;;;12.32;7.45;;;;;;;;;;4999053;28;20046;-54
2023/11/20 07:33:24;;;;;;;14.45;8.18;;;;;;;;;;4998061;28;20053;-50
2023/11/20 07:35:52;;;;;;;17.33;8.40;;;;;;;;;;5000695;28;20566;-52
2023/11/20 07:38:26;;;;;;;14.48;7.78;;;;;;;;;;4999360;28;20054;-49
2023/11/20 07:40:53;;;;;;;;;;;;;;;;;;4998669;28;20062;-51
2023/11/20 07:43:28;;;;;;;14.15;7.28;;;;;;;;;;5000072;28;19964;-51
2023/11/20 07:45:55;;;;;;;14.10;7.93;;;;;;;;;;4998921;28;20496;-50
2023/11/20 07:48:22;;;;;;;13.95;7.35;;;;;;;;;;4997056;28;20744;-53
2023/11/20 07:50:56;;;;;;;16.70;9.05;;;;;;;;;;5001746;28;20050;-49
2023/11/20 07:53:23;;;;;;;;;;;;;;;;;;5003382;28;20532;-50
2023/11/20 07:55:58;;;;;;;14.00;8.07;;;;;;;;;;5000127;28;19995;-49
2023/11/20 07:58:26;;;;;;;18.23;9.35;;;;;;;;;;4999256;28;20060;-51
2023/11/20 08:00:53;;;;;;;16.08;8.30;;;;;;;;;;5000078;28;20654;-48
2023/11/20 08:03:27;;;;;;;14.98;7.75;;;;;;;;;;4997840;28;20053;-50
2023/11/20 08:05:55;;;;;;;17.25;8.35;;;;;;;;;;5002750;28;20058;-54
2023/11/20 08:08:46;;;;;;;16.77;7.93;;;;;;;;;;5001127;28;20425;-52
2023/11/20 08:11:14;;;;;;;;;;;;;;;;;;4985325;28;20085;-50
2023/11/20 08:13:48;;;;;;;13.75;7.63;;;;;;;;;;5001284;28;19976;-53
2023/11/20 08:16:15;;;;;;;;;;;;;;;;;;4994968;28;20152;-53
2023/11/20 08:18:42;;;;;;;15.43;8.07;;;;;;;;;;4999637;28;19936;-54
2023/11/20 08:21:16;;;;;;;14.90;8.35;;;;;;;;;;5001250;28;20056;-52
2023/11/20 08:23:43;;;;;;;14.48;8.02;;;;;;;;;;4998491;28;20053;-53
2023/11/20 08:26:17;;;;;;;21.27;9.23;;;;;;;;;;5000471;28;20049;-52
2023/11/20 08:28:45;;;;;;;;;;;;;;;;;;4997070;28;20112;-48
2023/11/20 08:31:12;;;;;;;19.45;8.35;;;;;;;;;;4997244;28;19925;-54
2023/11/20 08:33:46;;;;;;;16.55;7.60;;;;;;;;;;4996228;28;20046;-51
2023/11/20 08:36:13;;;;;;;13.10;8.02;;;;;;;;;;4997534;28;20189;-55
2023/11/20 08:38:47;;;;;;;14.82;7.53;;;;;;;;;;5001353;28;20056;-51
2023/11/20 08:41:14;;;;;;;;;;;;;;;;;;4998645;28;20062;-54
2023/11/20 08:43:42;;;;;;;12.23;7.13;;;;;;;;;;4996992;28;19979;-50
2023/11/20 08:46:16;;;;;;;13.00;8.05;;;;;;;;;;4998004;28;20082;-51
2023/11/20 08:48:50;;;;;;;13.73;8.27;;;;;;;;;;4996492;28;20104;-49
2023/11/20 08:51:24;;;;;;;12.25;7.55;;;;;;;;;;5000228;28;20061;-53
2023/11/20 08:53:58;;;;;;;16.30;7.88;;;;;;;;;;4998202;28;20050;-53
2023/11/20 08:56:32;;;;;;;14.68;7.93;;;;;;;;;;5000785;28;20061;-51
2023/11/20 08:59:06;;;;;;;12.18;7.28;;;;;;;;;;4998732;28;20045;-51
2023/11/20 09:01:40;;;;;;;14.73;7.57;;;;;;;;;;4996988;28;20100;-53
2023/11/20 09:04:10;;;;;;;12.40;7.50;;;;;;;;;;4999290;28;20441;-55
2023/11/20 09:06:37;;;;;;;12.35;7.57;;;;;;;;;;4998931;28;20045;-54
2023/11/20 09:09:11;;;;;;;13.75;7.72;;;;;;;;;;4998544;28;20058;-52
2023/11/20 09:11:39;;;;;;;14.85;8.15;;;;;;;;;;5001005;28;20467;-55
2023/11/20 09:14:07;;;;;;;13.57;7.57;;;;;;;;;;4999378;28;20100;-55
2023/11/20 09:16:41;;;;;;;12.02;6.90;;;;;;;;;;4996545;28;20073;-64
2023/11/20 09:19:08;;;;;;;13.23;7.32;;;;;;;;;;4997793;28;20053;-64
2023/11/20 09:21:42;;;;;;;12.10;7.82;;;;;;;;;;4992218;28;20426;-63
2023/11/20 09:24:09;;;;;;;12.85;7.85;;;;;;;;;;4997798;28;20436;-64
2023/11/20 09:26:44;;;;;;;13.02;7.18;;;;;;;;;;5001817;28;20058;-64
2023/11/20 09:29:11;;;;;;;10.40;6.95;;;;;;;;;;4996560;28;20143;-63
2023/11/20 09:31:38;;;;;;;11.13;5.88;;;;;;;;;;4996054;28;20508;-64
2023/11/20 09:34:12;;;;;;;11.57;6.72;;;;;;;;;;4996265;28;20054;-64
2023/11/20 09:36:39;;;;;;;13.45;7.20;;;;;;;;;;4996583;28;20065;-64
2023/11/20 09:39:13;;;;;;;10.88;6.45;;;;;;;;;;5000351;28;20050;-64
2023/11/20 09:41:44;;;;;;;10.63;7.03;;;;;;;;;;4999054;28;20058;-64
2023/11/20 09:44:12;;;;;;;12.38;6.93;;;;;;;;;;4998468;28;20476;-63
2023/11/20 09:46:53;;;;;;;12.95;7.38;;;;;;;;;;4995502;28;20582;-63
2023/11/20 09:49:28;;;;;;;12.85;7.28;;;;;;;;;;4997497;28;20416;-64
2023/11/20 09:52:02;;;;;;;11.00;6.10;;;;;;;;;;4996927;28;20058;-64
2023/11/20 09:54:30;;;;;;;12.25;7.10;;;;;;;;;;4997897;28;20062;-64
2023/11/20 09:57:01;;;;;;;11.18;7.13;;;;;;;;;;5005366;28;20136;-64
2023/11/20 09:59:36;;;;;;;12.45;6.78;;;;;;;;;;5002876;28;20544;-63
2023/11/20 10:02:04;;;;;;;13.18;6.78;;;;;;;;;;4999673;28;20144;-63
2023/11/20 10:04:32;;;;;;;12.05;6.65;;;;;;;;;;5001049;28;20410;-64
2023/11/20 10:07:07;;;;;;;10.52;6.22;;;;;;;;;;5001619;28;20054;-64
2023/11/20 10:09:45;;;;;;;10.63;5.97;;;;;;;;;;5001682;28;20049;-63
2023/11/20 10:12:14;;;;;;;10.65;6.72;;;;;;;;;;5001570;28;20152;-64
2023/11/20 10:14:48;;;;;;;10.27;6.50;;;;;;;;;;5003030;28;20509;-64
2023/11/20 10:17:17;;;;;;;15.10;6.22;;;;;;;;;;5000361;28;20061;-64
2023/11/20 10:19:51;;;;;;;11.35;6.68;;;;;;;;;;4999580;28;20050;-64
2023/11/20 10:22:19;;;;;;;10.85;6.30;;;;;;;;;;5001426;28;20116;-64
2023/11/20 10:24:53;;;;;;;10.98;6.32;;;;;;;;;;4998827;28;20515;-64
2023/11/20 10:27:22;;;;;;;9.80;6.25;;;;;;;;;;5004173;28;20125;-64
2023/11/20 10:29:50;;;;;;;11.70;6.45;;;;;;;;;;5002266;28;20575;-63
2023/11/20 10:32:27;;;;;;;9.52;6.00;;;;;;;;;;5000043;28;20085;-64
2023/11/20 10:35:12;;;;;;;9.50;6.00;;;;;;;;;;4997819;28;20436;-64
2023/11/20 10:37:59;;;;;;;8.85;5.90;;;;;;;;;;4999355;28;20497;-64
2023/11/20 10:40:26;;;;;;;10.73;5.45;;;;;;;;;;4997894;28;20509;-63
2023/11/20 10:43:00;;;;;;;11.60;6.40;;;;;;;;;;4998427;28;20046;-64
2023/11/20 10:45:28;;;;;;;11.45;5.72;;;;;;;;;;4999901;28;20062;-63
2023/11/20 10:47:56;;;;;;;8.43;6.22;;;;;;;;;;5002799;28;20426;-64
2023/11/20 10:50:39;;;;;;;10.85;6.78;;;;;;;;;;5001348;28;20464;-63
2023/11/20 10:53:07;;;;;;;13.85;6.30;;;;;;;;;;4998555;28;20066;-63
2023/11/20 10:55:50;;;;;;;9.60;6.18;;;;;;;;;;4999452;28;20058;-64
2023/11/20 10:58:17;;;;;;;9.95;6.18;;;;;;;;;;4999553;28;20053;-64
2023/11/20 11:00:52;;;;;;;11.40;6.18;;;;;;;;;;4999262;28;20061;-63
2023/11/20 11:03:19;;;;;;;11.50;6.00;;;;;;;;;;5001704;28;20046;-63
2023/11/20 11:05:47;;;;;;;;;;;;;;;;;;5000844;28;20054;-64
2023/11/20 11:08:22;;;;;;;11.00;6.30;;;;;;;;;;5000105;28;19953;-63
2023/11/20 11:10:55;;;;;;;11.45;5.93;;;;;;;;;;4998768;28;20468;-63
2023/11/20 11:13:23;;;;;;;;;;;;;;;;;;4995793;28;20061;-64
2023/11/20 11:15:57;;;;;;;7.57;4.78;;;;;;;;;;4998622;28;19925;-63
2023/11/20 11:18:24;;;;;;;;;;;;;;;;;;5004224;28;20578;-63
2023/11/20 11:20:58;;;;;;;9.48;5.53;;;;;;;;;;5001036;28;20020;-64
2023/11/20 11:23:39;;;;;;;10.30;6.05;;;;;;;;;;4999057;28;20826;-64
2023/11/20 11:26:26;;;;;;;9.40;6.03;;;;;;;;;;4997889;28;20136;-63
2023/11/20 11:29:02;;;;;;;8.98;5.82;;;;;;;;;;4999588;28;20120;-63
2023/11/20 11:31:52;;;;;;;8.05;5.53;;;;;;;;;;4998251;28;20053;-54
2023/11/20 11:34:19;;;;;;;15.80;6.22;;;;;;;;;;4998468;28;20523;-63
2023/11/20 11:37:03;;;;;;;10.10;6.30;;;;;;;;;;4999373;28;20050;-63
2023/11/20 11:39:34;;;;;;;5.57;3.97;;;;;;;;;;5002093;28;20141;-63
2023/11/20 11:42:16;;;;;;;8.95;5.68;;;;;;;;;;5003811;28;20049;-63
2023/11/20 11:44:50;;;;;;;7.57;5.18;;;;;;;;;;4993262;28;20057;-62
2023/11/20 11:47:44;;;;;;;10.10;5.82;;;;;;;;;;4996580;28;20124;-62
2023/11/20 11:50:18;;;;;;;9.13;5.25;;;;;;;;;;4999046;28;20054;-60
2023/11/20 11:52:55;;;;;;;9.55;5.85;;;;;;;;;;4999340;28;20128;-67
2023/11/20 11:55:24;;;;;;;11.77;5.45;;;;;;;;;;5000411;28;20046;-61
2023/11/20 11:58:02;;;;;;;10.13;5.53;;;;;;;;;;4992054;28;20831;-65
2023/11/20 12:00:30;;;;;;;8.90;5.57;;;;;;;;;;5000925;28;20167;-61
2023/11/20 12:03:14;;;;;;;8.43;5.82;;;;;;;;;;4998615;28;20054;-53
2023/11/20 12:06:00;;;;;;;9.55;5.43;;;;;;;;;;4999409;28;20482;-53
2023/11/20 12:08:34;;;;;;;9.70;5.93;;;;;;;;;;4998028;28;20042;-53
2023/11/20 12:11:01;;;;;;;12.20;5.75;;;;;;;;;;4998840;28;20061;-53
2023/11/20 12:13:35;;;;;;;7.68;5.25;;;;;;;;;;4997517;28;20497;-51
2023/11/20 12:16:09;;;;;;;8.93;5.53;;;;;;;;;;4997111;28;20422;-52
2023/11/20 12:18:44;;;;;;;9.75;5.85;;;;;;;;;;5001704;28;20056;-55
2023/11/20 12:21:13;;;;;;;15.55;6.82;;;;;;;;;;4996605;28;20058;-54
2023/11/20 12:23:48;;;;;;;7.13;4.88;;;;;;;;;;4992929;28;20069;-52
2023/11/20 12:26:18;;;;;;;11.30;5.18;;;;;;;;;;4998385;28;20187;-51
2023/11/20 12:28:52;;;;;;;12.50;5.32;;;;;;;;;;4998231;28;20599;-50
2023/11/20 12:31:19;;;;;;;13.25;5.60;;;;;;;;;;4997918;28;20058;-51
2023/11/20 12:34:13;;;;;;;8.93;6.00;;;;;;;;;;4998490;28;20054;-51
2023/11/20 12:37:00;;;;;;;8.82;5.30;;;;;;;;;;4996506;28;20049;-56
2023/11/20 12:40:01;;;;;;;8.50;5.50;;;;;;;;;;4999916;28;20669;-60
2023/11/20 12:42:48;;;;;;;8.35;5.53;;;;;;;;;;5000416;28;20416;-60
2023/11/20 12:45:42;;;;;;;9.82;5.63;;;;;;;;;;4999727;28;20140;-61
2023/11/20 12:48:39;;;;;;;9.05;4.70;;;;;;;;;;5001185;28;20669;-51
2023/11/20 12:51:30;;;;;;;7.75;4.55;;;;;;;;;;4999800;28;20137;-53
2023/11/20 12:54:18;;;;;;;7.75;4.35;;;;;;;;;;4999657;28;20058;-55
2023/11/20 12:57:12;;;;;;;6.82;4.30;;;;;;;;;;4999291;28;20061;-55
2023/11/20 13:00:00;;;;;;;7.43;4.90;;;;;;;;;;4999455;28;20409;-49
2023/11/20 13:03:05;;;;;;;8.18;4.85;;;;;;;;;;4998707;28;20124;-54
2023/11/20 13:05:54;;;;;;;8.30;4.53;;;;;;;;;;4993721;28;20060;-53
2023/11/20 13:08:49;;;;;;;6.60;4.40;;;;;;;;;;4996362;28;20054;-54
2023/11/20 13:11:37;;;;;;;8.93;4.72;;;;;;;;;;4998833;28;20054;-52
2023/11/20 13:14:30;;;;;;;7.63;4.47;;;;;;;;;;4996946;28;20053;-53
2023/11/20 13:17:17;;;;;;;7.28;4.80;;;;;;;;;;5000341;28;20046;-52
2023/11/20 13:20:30;;;;;;;11.52;5.15;;;;;;;;;;4994614;28;20057;-62
2023/11/20 13:23:24;;;;;;;8.45;5.20;;;;;;;;;;4997647;28;20140;-62
2023/11/20 13:26:19;;;;;;;9.23;5.80;;;;;;;;;;4995861;28;20057;-62
2023/11/20 13:29:09;;;;;;;7.50;4.75;;;;;;;;;;4997117;28;20551;-62
2023/11/20 13:32:16;;;;;;;8.05;4.78;;;;;;;;;;4997220;28;20120;-62
2023/11/20 13:35:03;;;;;;;9.13;4.38;;;;;;;;;;5001290;28;20046;-62
2023/11/20 13:37:57;;;;;;;6.97;4.38;;;;;;;;;;4999954;28;20050;-62
2023/11/20 13:40:44;;;;;;;7.20;4.28;;;;;;;;;;5001903;28;20116;-62
2023/11/20 13:43:38;;;;;;;9.32;4.93;;;;;;;;;;5000497;28;20054;-62
2023/11/20 13:46:29;;;;;;;6.80;4.90;;;;;;;;;;5001227;28;20054;-62
2023/11/20 13:49:26;;;;;;;8.02;5.18;;;;;;;;;;5002214;28;20053;-62
2023/11/20 13:52:13;;;;;;;9.85;4.78;;;;;;;;;;4997415;28;20359;-62
2023/11/20 13:55:09;;;;;;;9.60;4.68;;;;;;;;;;4997084;28;20057;-62
2023/11/20 13:57:57;;;;;;;10.80;4.70;;;;;;;;;;5001524;28;20113;-62
2023/11/20 14:01:01;;;;;;;7.85;4.93;;;;;;;;;;5002618;28;20057;-62
2023/11/20 14:03:49;;;;;;;7.05;4.20;;;;;;;;;;4999036;28;20101;-62
2023/11/20 14:06:42;;;;;;;8.43;4.18;;;;;;;;;;5004052;28;20073;-62
2023/11/20 14:09:33;;;;;;;7.03;4.32;;;;;;;;;;5002313;28;20056;-62
2023/11/20 14:12:24;;;;;;;7.10;4.57;;;;;;;;;;5004015;28;20049;-62
2023/11/20 14:15:12;;;;;;;6.97;4.65;;;;;;;;;;5003355;28;20531;-62
2023/11/20 14:18:05;;;;;;;6.25;4.20;;;;;;;;;;4997545;28;20689;-62
2023/11/20 14:20:52;;;;;;;8.15;4.40;;;;;;;;;;4998690;28;20050;-61
2023/11/20 14:23:46;;;;;;;6.65;4.15;;;;;;;;;;4996461;28;20062;-61
2023/11/20 14:26:33;;;;;;;9.05;4.50;;;;;;;;;;4995750;28;20151;-62
2023/11/20 14:29:27;;;;;;;8.93;4.28;;;;;;;;;;5000208;28;20116;-62
2023/11/20 14:32:14;;;;;;;5.45;3.95;;;;;;;;;;4999659;28;20061;-62
2023/11/20 14:35:08;;;;;;;7.95;4.55;;;;;;;;;;4995227;28;20046;-62
2023/11/20 14:38:02;;;;;;;8.30;4.22;;;;;;;;;;5001443;28;20412;-62
2023/11/20 14:40:49;;;;;;;6.88;3.67;;;;;;;;;;4993529;28;20062;-62
2023/11/20 14:43:43;;;;;;;7.93;3.88;;;;;;;;;;4997448;28;20123;-61
2023/11/20 14:46:37;;;;;;;8.57;3.80;;;;;;;;;;5002081;28;20740;-62
2023/11/20 14:49:37;;;;;;;8.70;4.03;;;;;;;;;;4997588;28;20058;-62
2023/11/20 14:52:24;;;;;;;6.45;3.78;;;;;;;;;;5000600;28;20583;-62
2023/11/20 14:55:23;;;;;;;7.40;4.13;;;;;;;;;;4998612;28;20446;-61
2023/11/20 14:58:09;;;;;;;8.13;3.20;;;;;;;;;;5001709;28;20521;-61
2023/11/20 15:01:04;;;;;;;5.40;3.40;;;;;;;;;;4996003;28;20054;-61
2023/11/20 15:03:50;;;;;;;6.05;3.20;;;;;;;;;;5000481;28;20056;-62
2023/11/20 15:06:44;;;;;;;5.13;3.20;;;;;;;;;;5001722;28;20064;-62
2023/11/20 15:09:32;;;;;;;5.97;3.20;;;;;;;;;;4999705;28;20154;-64
2023/11/20 15:12:26;;;;;;;6.22;3.53;;;;;;;;;;5001750;28;20058;-64
2023/11/20 15:15:22;;;;;;;5.63;2.70;;;;;;;;;;4996227;28;20050;-64
2023/11/20 15:18:08;;;;;;;4.75;3.08;;;;;;;;;;4996434;28;20140;-64
2023/11/20 15:21:01;;;;;;;4.97;2.90;;;;;;;;;;4998411;28;20557;-57
2023/11/20 15:23:56;;;;;;;7.38;3.42;;;;;;;;;;4995775;28;20570;-62